createdAt,value
2023-12-18T00:00:00.836Z,100530.58
2023-12-18T00:02:30.773Z,100534.20
2023-12-18T00:04:59.286Z,100534.02
2023-12-18T00:07:28.512Z,100527.75
2023-12-18T00:09:56.841Z,100523.75
2023-12-18T00:12:25.388Z,100519.34
2023-12-18T00:14:53.855Z,100517.94
2023-12-18T00:17:22.263Z,100517.77
2023-12-18T00:19:52.554Z,100515.37
2023-12-18T00:22:20.950Z,100515.27
2023-12-18T00:24:49.392Z,100516.36
2023-12-18T00:27:18.036Z,100515.92
2023-12-18T00:29:46.358Z,100509.14
2023-12-18T00:32:14.900Z,100501.69
2023-12-18T00:34:43.519Z,100499.63
2023-12-18T00:37:12.503Z,100496.34
2023-12-18T00:39:40.956Z,100502.13
2023-12-18T00:42:09.648Z,100508.30
2023-12-18T00:44:38.090Z,100507.13
2023-12-18T00:47:06.746Z,100508.92
2023-12-18T00:49:35.225Z,100503.36
2023-12-18T00:52:03.891Z,100502.34
2023-12-18T00:54:32.338Z,100503.92
2023-12-18T00:57:00.831Z,100498.48
2023-12-18T00:59:29.312Z,100491.96
2023-12-18T01:01:57.689Z,100489.59
2023-12-18T01:04:26.153Z,100495.66
2023-12-18T01:06:54.493Z,100493.58
2023-12-18T01:09:23.553Z,100491.81
2023-12-18T01:11:52.422Z,100493.16
2023-12-18T01:14:20.791Z,100499.79
2023-12-18T01:16:49.529Z,100504.86
2023-12-18T01:19:18.061Z,100503.29
2023-12-18T01:21:46.498Z,100502.23
2023-12-18T01:24:14.921Z,100503.94
2023-12-18T01:26:43.371Z,100506.16
2023-12-18T01:29:11.858Z,100503.67
2023-12-18T01:31:40.240Z,100501.58
2023-12-18T01:34:08.764Z,100499.98
2023-12-18T01:36:37.091Z,100502.62
2023-12-18T01:39:05.476Z,100499.29
2023-12-18T01:41:33.965Z,100496.32
2023-12-18T01:44:02.352Z,100489.54
2023-12-18T01:46:30.883Z,100487.12
2023-12-18T01:48:59.594Z,100482.98
2023-12-18T01:51:29.397Z,100474.27
2023-12-18T01:53:59.812Z,100467.62
2023-12-18T01:56:31.879Z,100467.63
2023-12-18T01:59:02.254Z,100459.05
2023-12-18T02:01:31.238Z,100453.25
2023-12-18T02:04:00.456Z,100453.58
2023-12-18T02:06:29.304Z,100455.33
2023-12-18T02:08:58.652Z,100443.29
2023-12-18T02:11:27.197Z,100437.56
2023-12-18T02:13:55.742Z,100432.55
2023-12-18T02:16:24.280Z,100431.85
2023-12-18T02:18:52.712Z,100429.63
2023-12-18T02:21:22.579Z,100433.17
2023-12-18T02:23:52.291Z,100430.82
2023-12-18T02:26:22.130Z,100431.04
2023-12-18T02:28:50.664Z,100431.04
2023-12-18T02:31:20.139Z,100423.88
2023-12-18T02:33:51.663Z,100420.00
2023-12-18T02:36:20.581Z,100419.65
2023-12-18T02:38:49.097Z,100423.19
2023-12-18T02:41:17.517Z,100428.84
2023-12-18T02:43:46.096Z,100428.20
2023-12-18T02:46:14.547Z,100436.80
2023-12-18T02:48:43.240Z,100443.67
2023-12-18T02:51:11.941Z,100446.31
2023-12-18T02:53:40.270Z,100446.02
2023-12-18T02:56:08.634Z,100446.92
2023-12-18T02:58:37.178Z,100447.27
2023-12-18T03:01:05.366Z,100443.09
2023-12-18T03:03:33.709Z,100445.36
2023-12-18T03:06:02.263Z,100446.92
2023-12-18T03:08:30.772Z,100443.16
2023-12-18T03:10:59.274Z,100439.73
2023-12-18T03:13:27.757Z,100434.33
2023-12-18T03:15:58.413Z,100434.71
2023-12-18T03:18:26.956Z,100429.34
2023-12-18T03:20:55.568Z,100426.73
2023-12-18T03:23:23.930Z,100429.00
2023-12-18T03:25:52.445Z,100423.45
2023-12-18T03:28:20.801Z,100422.65
2023-12-18T03:30:49.223Z,100417.80
2023-12-18T03:33:17.974Z,100416.22
2023-12-18T03:35:46.796Z,100413.06
2023-12-18T03:38:15.239Z,100413.98
2023-12-18T03:40:43.695Z,100414.34
2023-12-18T03:43:12.675Z,100413.85
2023-12-18T03:45:41.094Z,100417.88
2023-12-18T03:48:10.414Z,100411.64
2023-12-18T03:50:39.070Z,100413.71
2023-12-18T03:53:09.931Z,100411.80
2023-12-18T03:55:39.549Z,100413.52
2023-12-18T03:58:08.031Z,100405.34
2023-12-18T04:00:36.581Z,100407.06
2023-12-18T04:03:06.138Z,100410.73
2023-12-18T04:05:34.866Z,100407.61
2023-12-18T04:08:03.450Z,100407.08
2023-12-18T04:10:31.842Z,100407.75
2023-12-18T04:13:00.280Z,100404.06
2023-12-18T04:15:29.460Z,100406.14
2023-12-18T04:17:59.277Z,100403.52
2023-12-18T04:20:27.841Z,100400.21
2023-12-18T04:22:56.186Z,100398.88
2023-12-18T04:25:25.922Z,100403.42
2023-12-18T04:27:54.705Z,100406.86
2023-12-18T04:30:23.350Z,100407.08
2023-12-18T04:32:51.964Z,100406.92
2023-12-18T04:35:20.527Z,100405.91
2023-12-18T04:37:49.034Z,100404.23
2023-12-18T04:40:18.286Z,100401.61
2023-12-18T04:42:47.063Z,100404.76
2023-12-18T04:45:15.865Z,100412.81
2023-12-18T04:47:44.809Z,100414.08
2023-12-18T04:50:14.660Z,100422.48
2023-12-18T04:52:43.635Z,100420.25
2023-12-18T04:55:12.429Z,100418.89
2023-12-18T04:57:40.979Z,100421.50
2023-12-18T05:00:09.852Z,100427.27
2023-12-18T05:02:39.367Z,100433.58
2023-12-18T05:05:08.285Z,100435.36
2023-12-18T05:07:36.637Z,100435.91
2023-12-18T05:10:05.372Z,100439.92
2023-12-18T05:12:33.869Z,100441.67
2023-12-18T05:15:03.952Z,100441.54
2023-12-18T05:17:33.499Z,100446.44
2023-12-18T05:20:01.917Z,100446.31
2023-12-18T05:22:30.321Z,100445.64
2023-12-18T05:24:58.729Z,100443.05
2023-12-18T05:27:27.259Z,100442.20
2023-12-18T05:29:55.815Z,100438.73
2023-12-18T05:32:24.313Z,100443.83
2023-12-18T05:34:53.001Z,100441.22
2023-12-18T05:37:22.780Z,100439.17
2023-12-18T05:39:51.141Z,100434.30
2023-12-18T05:42:20.824Z,100432.38
2023-12-18T05:44:49.247Z,100434.30
2023-12-18T05:47:17.762Z,100438.85
2023-12-18T05:49:46.362Z,100438.35
2023-12-18T05:52:14.872Z,100433.48
2023-12-18T05:54:43.294Z,100434.35
2023-12-18T05:57:13.596Z,100431.55
2023-12-18T05:59:42.174Z,100434.67
2023-12-18T06:02:11.007Z,100435.38
2023-12-18T06:04:43.217Z,100436.42
2023-12-18T06:07:12.270Z,100439.38
2023-12-18T06:09:41.088Z,100443.39
2023-12-18T06:12:09.673Z,100443.59
2023-12-18T06:14:40.591Z,100446.73
2023-12-18T06:17:11.531Z,100438.88
2023-12-18T06:19:40.130Z,100438.31
2023-12-18T06:22:11.535Z,100442.11
2023-12-18T06:24:40.757Z,100447.14
2023-12-18T06:27:09.444Z,100447.52
2023-12-18T06:29:37.971Z,100442.82
2023-12-18T06:32:06.949Z,100449.63
2023-12-18T06:34:35.768Z,100455.56
2023-12-18T06:37:04.618Z,100460.63
2023-12-18T06:39:33.206Z,100461.86
2023-12-18T06:42:01.699Z,100464.98
2023-12-18T06:44:30.170Z,100461.30
2023-12-18T06:47:00.650Z,100466.36
2023-12-18T06:49:29.846Z,100469.30
2023-12-18T06:51:58.558Z,100472.27
2023-12-18T06:54:28.686Z,100472.45
2023-12-18T06:56:57.266Z,100475.75
2023-12-18T06:59:25.737Z,100476.92
2023-12-18T07:01:54.261Z,100470.66
2023-12-18T07:04:22.781Z,100469.59
2023-12-18T07:06:51.204Z,100468.86
2023-12-18T07:09:20.956Z,100464.50
2023-12-18T07:11:49.382Z,100464.11
2023-12-18T07:14:19.461Z,100461.64
2023-12-18T07:16:47.936Z,100464.40
2023-12-18T07:19:17.430Z,100467.69
2023-12-18T07:21:46.194Z,100470.83
2023-12-18T07:24:14.753Z,100462.94
2023-12-18T07:26:43.289Z,100454.34
2023-12-18T07:29:11.701Z,100449.22
2023-12-18T07:31:40.374Z,100444.06
2023-12-18T07:34:09.104Z,100442.20
2023-12-18T07:36:40.666Z,100440.73
2023-12-18T07:39:10.006Z,100440.84
2023-12-18T07:41:38.379Z,100442.13
2023-12-18T07:44:06.644Z,100439.91
2023-12-18T07:46:34.919Z,100436.09
2023-12-18T07:49:04.381Z,100435.60
2023-12-18T07:51:33.062Z,100434.53
2023-12-18T07:54:01.645Z,100432.73
2023-12-18T07:56:30.119Z,100427.74
2023-12-18T07:58:58.601Z,100428.70
2023-12-18T08:01:27.209Z,100433.80
2023-12-18T08:03:55.784Z,100429.74
2023-12-18T08:06:24.275Z,100423.02
2023-12-18T08:08:52.793Z,100414.65
2023-12-18T08:11:21.372Z,100404.80
2023-12-18T08:13:49.818Z,100397.45
2023-12-18T08:16:18.605Z,100395.45
2023-12-18T08:18:48.780Z,100395.38
2023-12-18T08:21:17.479Z,100395.52
2023-12-18T08:23:45.888Z,100393.98
2023-12-18T08:26:14.290Z,100394.09
2023-12-18T08:28:46.333Z,100394.15
2023-12-18T08:31:14.816Z,100394.04
2023-12-18T08:33:43.501Z,100390.38
2023-12-18T08:36:12.319Z,100390.69
2023-12-18T08:38:40.968Z,100390.27
2023-12-18T08:41:09.417Z,100387.38
2023-12-18T08:43:37.868Z,100380.95
2023-12-18T08:46:06.428Z,100376.20
2023-12-18T08:48:35.019Z,100373.38
2023-12-18T08:51:06.184Z,100365.30
2023-12-18T08:53:35.486Z,100359.50
2023-12-18T08:56:04.676Z,100352.00
2023-12-18T08:58:33.803Z,100354.18
2023-12-18T09:01:02.457Z,100353.20
2023-12-18T09:03:36.398Z,100357.27
2023-12-18T09:06:05.674Z,100353.08
2023-12-18T09:08:40.813Z,100346.85
2023-12-18T09:11:10.215Z,100345.58
2023-12-18T09:13:39.366Z,100343.59
2023-12-18T09:16:08.130Z,100342.65
2023-12-18T09:18:36.698Z,100340.44
2023-12-18T09:21:05.422Z,100338.59
2023-12-18T09:23:33.821Z,100337.38
2023-12-18T09:26:02.357Z,100335.79
2023-12-18T09:28:34.369Z,100332.17
2023-12-18T09:31:02.845Z,100325.50
2023-12-18T09:33:31.495Z,100328.52
2023-12-18T09:36:01.769Z,100327.46
2023-12-18T09:38:30.315Z,100322.55
2023-12-18T09:40:58.825Z,100318.07
2023-12-18T09:43:28.522Z,100308.88
2023-12-18T09:45:58.275Z,100300.55
2023-12-18T09:48:27.058Z,100295.95
2023-12-18T09:50:56.902Z,100286.88
2023-12-18T09:53:26.176Z,100279.59
2023-12-18T09:55:56.232Z,100273.38
2023-12-18T09:58:25.543Z,100268.00
2023-12-18T10:00:55.021Z,100264.76
2023-12-18T10:03:23.653Z,100263.89
2023-12-18T10:05:55.013Z,100265.63
2023-12-18T10:08:23.509Z,100261.42
2023-12-18T10:10:52.058Z,100259.90
2023-12-18T10:13:20.321Z,100260.59
2023-12-18T10:15:48.789Z,100259.48
2023-12-18T10:18:20.788Z,100255.87
2023-12-18T10:20:50.846Z,100252.64
2023-12-18T10:23:19.311Z,100246.33
2023-12-18T10:25:49.351Z,100243.30
2023-12-18T10:28:18.346Z,100246.77
2023-12-18T10:30:47.197Z,100247.05
2023-12-18T10:33:15.749Z,100247.46
2023-12-18T10:35:45.026Z,100245.24
2023-12-18T10:38:20.553Z,100246.29
2023-12-18T10:40:56.003Z,100242.16
2023-12-18T10:43:25.346Z,100241.67
2023-12-18T10:45:54.753Z,100233.61
2023-12-18T10:48:26.512Z,100229.46
2023-12-18T10:50:59.293Z,100225.35
2023-12-18T10:53:28.890Z,100220.35
2023-12-18T10:56:00.366Z,100222.33
2023-12-18T10:58:30.307Z,100218.09
2023-12-18T11:01:00.688Z,100217.91
2023-12-18T11:03:38.228Z,100210.69
2023-12-18T11:06:11.405Z,100206.36
2023-12-18T11:08:42.938Z,100197.05
2023-12-18T11:11:14.348Z,100192.77
2023-12-18T11:14:03.426Z,100188.57
2023-12-18T11:16:42.443Z,100178.11
2023-12-18T11:19:39.326Z,100176.83
2023-12-18T11:22:07.847Z,100169.91
2023-12-18T11:24:37.724Z,100164.80
2023-12-18T11:27:07.647Z,100158.86
2023-12-18T11:29:38.847Z,100159.83
2023-12-18T11:32:07.632Z,100165.70
2023-12-18T11:34:36.135Z,100169.34
2023-12-18T11:37:08.104Z,100168.66
2023-12-18T11:39:41.667Z,100171.58
2023-12-18T11:42:12.952Z,100181.64
2023-12-18T11:44:41.470Z,100183.97
2023-12-18T11:47:09.798Z,100177.23
2023-12-18T11:49:38.725Z,100166.39
2023-12-18T11:52:18.769Z,100165.40
2023-12-18T11:54:47.381Z,100163.13
2023-12-18T11:57:20.422Z,100165.18
2023-12-18T11:59:49.264Z,100167.21
2023-12-18T12:02:18.107Z,100166.86
2023-12-18T12:04:47.465Z,100170.42
2023-12-18T12:07:16.146Z,100171.73
2023-12-18T12:09:45.343Z,100170.23
2023-12-18T12:12:15.486Z,100164.53
2023-12-18T12:14:44.083Z,100165.03
2023-12-18T12:17:12.387Z,100166.71
2023-12-18T12:19:40.960Z,100167.96
2023-12-18T12:22:10.499Z,100161.77
2023-12-18T12:24:43.752Z,100156.70
2023-12-18T12:27:13.461Z,100155.89
2023-12-18T12:29:44.242Z,100153.21
2023-12-18T12:32:15.090Z,100157.30
2023-12-18T12:34:44.300Z,100159.52
2023-12-18T12:37:13.594Z,100157.17
2023-12-18T12:40:01.856Z,100152.05
2023-12-18T12:42:36.030Z,100146.95
2023-12-18T12:45:05.677Z,100146.55
2023-12-18T12:47:34.995Z,100151.86
2023-12-18T12:50:08.152Z,100157.69
2023-12-18T12:52:38.904Z,100164.90
2023-12-18T12:55:07.505Z,100172.97
2023-12-18T12:57:36.038Z,100178.50
2023-12-18T13:00:09.488Z,100180.60
2023-12-18T13:02:38.024Z,100183.27
2023-12-18T13:05:10.488Z,100192.81
2023-12-18T13:07:39.234Z,100187.12
2023-12-18T13:10:08.558Z,100180.71
2023-12-18T13:12:36.918Z,100172.41
2023-12-18T13:15:05.749Z,100164.83
2023-12-18T13:17:34.748Z,100162.85
2023-12-18T13:20:12.435Z,100153.20
2023-12-18T13:22:48.643Z,100151.61
2023-12-18T13:25:18.483Z,100152.55
2023-12-18T13:27:46.918Z,100159.57
2023-12-18T13:30:15.519Z,100158.55
2023-12-18T13:32:44.149Z,100160.15
2023-12-18T13:35:12.703Z,100164.90
2023-12-18T13:37:41.501Z,100163.66
2023-12-18T13:40:10.296Z,100169.45
2023-12-18T13:42:38.671Z,100174.25
2023-12-18T13:45:08.784Z,100179.68
2023-12-18T13:47:37.131Z,100183.95
2023-12-18T13:50:06.191Z,100186.84
2023-12-18T13:52:34.747Z,100184.29
2023-12-18T13:55:03.256Z,100191.57
2023-12-18T13:57:39.171Z,100205.36
2023-12-18T14:00:14.791Z,100209.98
2023-12-18T14:02:43.132Z,100215.89
2023-12-18T14:05:11.446Z,100219.58
2023-12-18T14:07:40.067Z,100216.86
2023-12-18T14:10:10.409Z,100210.72
2023-12-18T14:12:39.247Z,100208.06
2023-12-18T14:15:07.926Z,100211.27
2023-12-18T14:17:36.465Z,100208.67
2023-12-18T14:20:06.612Z,100214.13
2023-12-18T14:22:35.239Z,100221.17
2023-12-18T14:25:07.355Z,100223.10
2023-12-18T14:27:36.072Z,100228.69
2023-12-18T14:30:05.983Z,100233.30
2023-12-18T14:32:34.333Z,100232.58
2023-12-18T14:35:03.565Z,100227.23
2023-12-18T14:37:32.076Z,100227.91
2023-12-18T14:40:04.320Z,100223.97
2023-12-18T14:42:32.876Z,100226.05
2023-12-18T14:45:01.257Z,100225.70
2023-12-18T14:47:29.665Z,100226.83
2023-12-18T14:49:58.158Z,100223.95
2023-12-18T14:52:26.504Z,100221.89
2023-12-18T14:54:55.839Z,100224.88
2023-12-18T14:57:24.556Z,100228.23
2023-12-18T14:59:53.622Z,100229.81
2023-12-18T15:02:22.550Z,100223.94
2023-12-18T15:04:51.399Z,100211.16
2023-12-18T15:07:20.049Z,100207.13
2023-12-18T15:09:48.384Z,100205.02
2023-12-18T15:12:16.939Z,100196.86
2023-12-18T15:14:45.316Z,100193.58
2023-12-18T15:17:14.342Z,100189.05
2023-12-18T15:19:43.162Z,100182.04
2023-12-18T15:22:13.294Z,100180.48
2023-12-18T15:24:41.792Z,100187.06
2023-12-18T15:27:12.436Z,100195.83
2023-12-18T15:29:41.140Z,100194.20
2023-12-18T15:32:11.282Z,100195.41
2023-12-18T15:34:39.850Z,100196.83
2023-12-18T15:37:09.065Z,100199.66
2023-12-18T15:39:37.503Z,100200.09
2023-12-18T15:42:06.501Z,100201.78
2023-12-18T15:44:35.948Z,100201.30
2023-12-18T15:47:05.221Z,100202.39
2023-12-18T15:49:33.769Z,100207.48
2023-12-18T15:52:03.072Z,100207.05
2023-12-18T15:54:31.516Z,100205.80
2023-12-18T15:57:00.300Z,100208.84
2023-12-18T15:59:28.773Z,100207.88
2023-12-18T16:01:57.139Z,100206.70
2023-12-18T16:04:25.710Z,100210.85
2023-12-18T16:06:54.821Z,100220.39
2023-12-18T16:09:23.166Z,100222.29
2023-12-18T16:11:53.933Z,100223.16
2023-12-18T16:14:22.468Z,100226.95
2023-12-18T16:16:52.416Z,100228.60
2023-12-18T16:19:21.273Z,100229.95
2023-12-18T16:21:50.788Z,100231.33
2023-12-18T16:24:20.228Z,100228.77
2023-12-18T16:26:48.696Z,100227.55
2023-12-18T16:29:17.814Z,100229.33
2023-12-18T16:31:49.698Z,100227.15
2023-12-18T16:34:18.340Z,100223.17
2023-12-18T16:36:46.718Z,100222.77
2023-12-18T16:39:15.779Z,100222.53
2023-12-18T16:41:44.332Z,100229.25
2023-12-18T16:44:15.516Z,100226.48
2023-12-18T16:46:45.669Z,100226.87
2023-12-18T16:49:14.856Z,100229.27
2023-12-18T16:51:43.595Z,100226.13
2023-12-18T16:54:12.734Z,100226.36
2023-12-18T16:56:41.276Z,100225.38
2023-12-18T16:59:16.588Z,100227.73
2023-12-18T17:01:51.787Z,100224.56
2023-12-18T17:04:20.225Z,100218.80
2023-12-18T17:06:48.893Z,100217.78
2023-12-18T17:09:22.456Z,100222.28
2023-12-18T17:11:53.237Z,100229.55
2023-12-18T17:14:21.657Z,100223.07
2023-12-18T17:16:54.652Z,100216.56
2023-12-18T17:19:23.282Z,100213.07
2023-12-18T17:21:51.968Z,100208.52
2023-12-18T17:24:21.128Z,100209.98
2023-12-18T17:26:49.597Z,100205.59
2023-12-18T17:29:18.491Z,100205.81
2023-12-18T17:31:48.113Z,100205.73
2023-12-18T17:34:19.364Z,100200.52
2023-12-18T17:36:48.430Z,100203.23
2023-12-18T17:39:19.139Z,100198.18
2023-12-18T17:41:52.759Z,100197.36
2023-12-18T17:44:21.455Z,100194.57
2023-12-18T17:46:49.715Z,100186.95
2023-12-18T17:49:18.904Z,100187.63
2023-12-18T17:51:47.719Z,100185.81
2023-12-18T17:54:16.391Z,100185.57
2023-12-18T17:56:44.768Z,100187.98
2023-12-18T17:59:16.083Z,100188.11
2023-12-18T18:01:44.528Z,100197.45
2023-12-18T18:04:13.158Z,100198.38
2023-12-18T18:06:42.424Z,100196.41
2023-12-18T18:09:14.240Z,100198.33
2023-12-18T18:11:42.636Z,100203.05
2023-12-18T18:14:11.181Z,100205.63
2023-12-18T18:16:42.990Z,100204.34
2023-12-18T18:19:20.634Z,100200.03
2023-12-18T18:21:51.962Z,100196.77
2023-12-18T18:24:22.124Z,100194.11
2023-12-18T18:27:08.212Z,100192.05
2023-12-18T18:29:39.537Z,100193.67
2023-12-18T18:32:10.972Z,100200.69
2023-12-18T18:34:40.942Z,100201.29
2023-12-18T18:37:09.579Z,100205.52
2023-12-18T18:39:41.740Z,100198.95
2023-12-18T18:42:13.095Z,100200.52
2023-12-18T18:44:45.672Z,100202.39
2023-12-18T18:47:14.116Z,100203.21
2023-12-18T18:49:45.316Z,100201.34
2023-12-18T18:52:14.220Z,100198.27
2023-12-18T18:54:43.408Z,100202.98
2023-12-18T18:57:13.755Z,100202.03
2023-12-18T18:59:43.119Z,100199.70
2023-12-18T19:02:11.571Z,100196.54
2023-12-18T19:04:41.554Z,100193.91
2023-12-18T19:07:09.956Z,100193.60
2023-12-18T19:09:39.191Z,100198.62
2023-12-18T19:12:11.095Z,100203.45
2023-12-18T19:14:39.489Z,100192.80
2023-12-18T19:17:08.446Z,100193.45
2023-12-18T19:19:36.969Z,100195.71
2023-12-18T19:22:06.649Z,100195.05
2023-12-18T19:24:35.008Z,100192.27
2023-12-18T19:27:11.956Z,100191.59
2023-12-18T19:29:41.911Z,100195.68
2023-12-18T19:32:10.430Z,100194.27
2023-12-18T19:34:41.561Z,100198.47
2023-12-18T19:37:09.992Z,100193.67
2023-12-18T19:39:38.529Z,100196.65
2023-12-18T19:42:07.990Z,100193.40
2023-12-18T19:44:36.716Z,100190.52
2023-12-18T19:47:05.315Z,100190.14
2023-12-18T19:49:34.299Z,100188.23
2023-12-18T19:52:02.847Z,100182.46
2023-12-18T19:54:34.335Z,100177.19
2023-12-18T19:57:03.501Z,100174.91
2023-12-18T19:59:32.209Z,100175.77
2023-12-18T20:02:01.156Z,100173.47
2023-12-18T20:04:29.944Z,100172.92
2023-12-18T20:07:05.947Z,100170.06
2023-12-18T20:09:34.562Z,100169.45
2023-12-18T20:12:06.893Z,100170.36
2023-12-18T20:14:35.163Z,100165.36
2023-12-18T20:17:03.917Z,100159.96
2023-12-18T20:19:32.435Z,100149.45
2023-12-18T20:22:01.121Z,100152.87
2023-12-18T20:24:29.594Z,100153.89
2023-12-18T20:26:58.385Z,100151.77
2023-12-18T20:29:26.607Z,100148.44
2023-12-18T20:31:54.962Z,100144.73
2023-12-18T20:34:23.460Z,100139.96
2023-12-18T20:36:54.377Z,100138.06
2023-12-18T20:39:22.941Z,100137.89
2023-12-18T20:41:51.629Z,100135.11
2023-12-18T20:44:23.162Z,100131.08
2023-12-18T20:46:55.770Z,100128.65
2023-12-18T20:49:29.179Z,100127.88
2023-12-18T20:51:58.159Z,100125.11
2023-12-18T20:54:26.658Z,100122.30
2023-12-18T20:56:55.085Z,100125.95
2023-12-18T20:59:23.374Z,100127.14
2023-12-18T21:01:51.790Z,100123.56
2023-12-18T21:04:20.335Z,100119.95
2023-12-18T21:06:49.633Z,100111.88
2023-12-18T21:09:18.179Z,100106.61
2023-12-18T21:11:46.582Z,100105.75
2023-12-18T21:14:22.944Z,100112.05
2023-12-18T21:16:58.784Z,100114.10
2023-12-18T21:19:27.112Z,100111.06
2023-12-18T21:21:56.907Z,100110.60
2023-12-18T21:24:25.744Z,100104.83
2023-12-18T21:26:54.137Z,100105.61
2023-12-18T21:29:22.630Z,100104.98
2023-12-18T21:31:51.151Z,100103.52
2023-12-18T21:34:20.719Z,100100.67
2023-12-18T21:36:51.423Z,100101.13
2023-12-18T21:39:21.616Z,100097.25
2023-12-18T21:41:50.029Z,100092.42
2023-12-18T21:44:18.371Z,100090.95
2023-12-18T21:46:46.780Z,100085.83
2023-12-18T21:49:15.274Z,100083.50
2023-12-18T21:51:44.466Z,100076.98
2023-12-18T21:54:13.102Z,100073.42
2023-12-18T21:56:44.961Z,100076.55
2023-12-18T21:59:13.286Z,100076.74
2023-12-18T22:01:41.675Z,100076.21
2023-12-18T22:04:10.366Z,100075.55
2023-12-18T22:06:38.794Z,100078.91
2023-12-18T22:09:07.669Z,100077.91
2023-12-18T22:11:35.941Z,100075.02
2023-12-18T22:14:06.136Z,100074.23
2023-12-18T22:16:36.011Z,100068.73
2023-12-18T22:19:05.277Z,100064.61
2023-12-18T22:21:33.713Z,100055.73
2023-12-18T22:24:02.399Z,100056.52
2023-12-18T22:26:30.729Z,100054.09
2023-12-18T22:28:59.090Z,100052.88
2023-12-18T22:31:33.149Z,100049.02
2023-12-18T22:34:02.749Z,100047.13
2023-12-18T22:36:31.181Z,100043.63
2023-12-18T22:39:05.665Z,100040.48
2023-12-18T22:41:41.684Z,100041.16
2023-12-18T22:44:10.323Z,100037.97
2023-12-18T22:46:39.831Z,100033.75
2023-12-18T22:49:09.122Z,100033.59
2023-12-18T22:51:37.679Z,100036.11
2023-12-18T22:54:06.082Z,100038.15
2023-12-18T22:56:34.475Z,100038.23
2023-12-18T22:59:03.279Z,100034.77
2023-12-18T23:01:32.111Z,100029.02
2023-12-18T23:04:02.147Z,100030.09
2023-12-18T23:06:33.593Z,100027.84
2023-12-18T23:09:02.440Z,100028.40
2023-12-18T23:11:31.449Z,100026.36
2023-12-18T23:13:59.875Z,100026.63
2023-12-18T23:16:28.365Z,100027.77
2023-12-18T23:18:57.003Z,100026.12
2023-12-18T23:21:25.503Z,100021.13
2023-12-18T23:24:00.079Z,100018.95
2023-12-18T23:26:28.863Z,100013.24
2023-12-18T23:28:57.314Z,100007.41
2023-12-18T23:31:25.877Z,100005.77
2023-12-18T23:33:56.373Z,100004.55
2023-12-18T23:36:24.960Z,100002.14
2023-12-18T23:38:53.373Z,100001.14
2023-12-18T23:41:23.356Z,100001.27
2023-12-18T23:43:52.129Z,99996.51
2023-12-18T23:46:20.504Z,99995.88
2023-12-18T23:48:48.927Z,99988.65
2023-12-18T23:51:24.006Z,99987.16
2023-12-18T23:53:52.393Z,99984.95
2023-12-18T23:56:22.333Z,99984.86
2023-12-18T23:58:50.754Z,99990.74
